Twining, MI (48766)

12:15 AM EDT on August 02, 2015 (GMT -0400)
Pt. Lookout | | Change Station
CLOSE
Current Station
Personal Weather Station
Location: Au Gres, MI
Elevation: 610 ft
Nearby Weather Stations

Elev 610 ft 44.05 °N, 83.58 °W | Updated 13 minutes ago

Clear
Clear
65.9 °F
Feels Like 65.9 °F
N
0.0
Wind Variable Wind from ESE
Gusts 0.0 mph

Today
High -- | Low -- °F
--% Chance of Precip.
Yesterday
High -- | Low -- °F
Precip. -- in
6:24 AM 8:58 PM
Waning Gibbous, 96% visible
Pressure 29.83 in
Visibility 10.0 miles
Clouds Clear
Dew Point 55 °F
Humidity 68%
Rainfall 0.00 in
Snow Depth Not available.
UV 0 out of 12
Pollen 7.20 out of 12
Air Quality Not available.
Flu Activity Not available.
METAR KOSC 020354Z AUTO 00000KT 10SM CLR 15/12 A2983 RMK AO2 T01550120

More Conditions Fewer Conditions

Pressure 29.83 in
Visibility 10.0 miles
Clouds Clear
Dew Point 55 °F
Humidity 68%
Rainfall 0.00 in
Snow Depth Not available.
UV 0 out of 12
Pollen 7.20 out of 12
Air Quality Not available.
Flu Activity Not available.
METAR KOSC 020354Z AUTO 00000KT 10SM CLR 15/12 A2983 RMK AO2 T01550120

More Conditions Fewer Conditions

Nowcast | as of 12:00 am EDT on August 2, 2015

At 1 am...mostly clear. Temperature 62. Southwest winds 5 mph. At 3 am...mostly clear. Temperature 59. Southwest winds 6 mph. At 5 am...mostly clear. Temperature 59. Southwest winds 6 mph. At 7 am...partly cloudy. Temperature 61. Southwest winds 7 mph.

×

10-Day Weather Forecast

×

Almanac

Astronomy

Aug. 02, 2015 Rise Set
Actual Time
Civil Twilight
Nautical Twilight
Astronomical Twilight
Moon
Length of Visible Light
Length of Day
Tomorrow will be .
, % of the Moon is Illuminated

Today's Extremes

State Highs State Lows

Community

WunderPhotos

Upload Photos

1,843,182 photos uploaded!

WunderBlogs® & News

Nearby

Air Quality

  Air Quality AQ Index Pollutant
Not available.

Snow Depth

Station Depth Elevation

Earthquake Activity

City Distance Mag. Time & Date
Minimum magnitude displayed is 2.5.

Coastal Water Temperatures

Place Temperature

Stations

Nearby Weather Stations

Station Location Temp. Windchill Dew Point Humidity Wind Precip. Elev Updated Type